createdAt,value
2022-11-29T00:00:23.183Z,81.62
2022-11-29T00:03:32.295Z,79.61
2022-11-29T00:06:40.378Z,79.78
2022-11-29T00:09:47.300Z,79.05
2022-11-29T00:12:53.488Z,77.62
2022-11-29T00:16:06.743Z,77.78
2022-11-29T00:19:15.641Z,77.05
2022-11-29T00:22:23.980Z,76.63
2022-11-29T00:25:30.637Z,75.31
2022-11-29T00:28:39.761Z,74.58
2022-11-29T00:31:49.011Z,73.44
2022-11-29T00:34:59.390Z,73.09
2022-11-29T00:38:05.842Z,72.92
2022-11-29T00:41:14.547Z,74.66
2022-11-29T00:44:20.960Z,76.01
2022-11-29T00:47:30.846Z,76.58
2022-11-29T00:50:36.969Z,80.22
2022-11-29T00:53:44.113Z,81.07
2022-11-29T00:56:50.209Z,79.71
2022-11-29T00:59:57.302Z,80.23
2022-11-29T01:03:06.248Z,80.15
2022-11-29T01:06:16.395Z,79.13
2022-11-29T01:09:23.373Z,79.07
2022-11-29T01:12:30.234Z,79.05
2022-11-29T01:15:36.847Z,78.20
2022-11-29T01:18:47.232Z,79.63
2022-11-29T01:21:53.357Z,79.99
2022-11-29T01:25:00.196Z,80.73
2022-11-29T01:28:08.009Z,80.88
2022-11-29T01:31:19.019Z,81.26
2022-11-29T01:34:27.782Z,84.49
2022-11-29T01:37:35.895Z,83.88
2022-11-29T01:40:42.052Z,83.68
2022-11-29T01:44:05.445Z,84.20
2022-11-29T01:47:14.725Z,84.10
2022-11-29T01:50:25.123Z,80.44
2022-11-29T01:53:32.784Z,79.45
2022-11-29T01:56:42.150Z,79.16
2022-11-29T01:59:53.674Z,79.21
2022-11-29T02:03:12.508Z,78.45
2022-11-29T02:06:21.865Z,80.11
2022-11-29T02:09:29.067Z,79.93
2022-11-29T02:12:57.451Z,81.69
2022-11-29T02:16:16.140Z,82.01
2022-11-29T02:20:02.399Z,82.98
2022-11-29T02:24:02.676Z,83.97
2022-11-29T02:28:08.800Z,83.83
2022-11-29T02:31:58.161Z,82.69
2022-11-29T02:35:31.835Z,81.23
2022-11-29T02:39:32.027Z,80.46
2022-11-29T02:48:02.944Z,76.92
2022-11-29T02:51:25.149Z,79.57
2022-11-29T02:54:46.410Z,79.84
2022-11-29T02:58:09.418Z,80.81
2022-11-29T03:01:28.965Z,81.04
2022-11-29T03:04:53.384Z,80.39
2022-11-29T03:08:19.678Z,81.16
2022-11-29T03:11:42.526Z,79.47
2022-11-29T03:15:05.582Z,78.67
2022-11-29T03:18:37.088Z,78.50
2022-11-29T03:22:08.770Z,80.34
2022-11-29T03:25:27.466Z,79.22
2022-11-29T03:28:44.603Z,79.37
2022-11-29T03:32:03.582Z,78.10
2022-11-29T03:35:18.289Z,77.85
2022-11-29T03:38:40.171Z,79.78
2022-11-29T03:41:56.378Z,77.46
2022-11-29T03:45:14.864Z,77.43
2022-11-29T03:48:32.470Z,77.31
2022-11-29T03:51:57.578Z,78.23
2022-11-29T03:55:34.567Z,75.01
2022-11-29T03:59:00.585Z,74.69
2022-11-29T04:02:48.874Z,76.21
2022-11-29T04:06:33.614Z,75.75
2022-11-29T04:10:17.020Z,73.58
2022-11-29T04:14:14.219Z,77.11
2022-11-29T04:18:05.676Z,77.94
2022-11-29T04:21:45.171Z,77.60
2022-11-29T04:25:44.459Z,74.48
2022-11-29T04:29:36.690Z,73.43
2022-11-29T04:33:33.493Z,75.62
2022-11-29T04:37:26.517Z,75.88
2022-11-29T04:41:08.700Z,74.88
2022-11-29T04:44:44.090Z,76.11
2022-11-29T04:48:09.413Z,79.04
2022-11-29T04:51:38.430Z,82.11
2022-11-29T04:55:00.271Z,78.80
2022-11-29T04:58:26.340Z,78.14
2022-11-29T05:01:53.960Z,79.38
2022-11-29T05:05:21.585Z,75.00
2022-11-29T05:08:47.966Z,82.00
2022-11-29T05:12:15.181Z,92.91
2022-11-29T05:15:53.436Z,87.30
2022-11-29T05:19:31.746Z,86.83
2022-11-29T05:22:59.352Z,84.34
2022-11-29T05:26:19.659Z,79.81
2022-11-29T05:29:43.337Z,75.90
2022-11-29T05:33:15.356Z,77.32
2022-11-29T05:36:40.944Z,77.54
2022-11-29T05:40:21.042Z,80.44
2022-11-29T05:44:04.709Z,79.79
2022-11-29T05:47:21.377Z,77.46
2022-11-29T05:50:41.065Z,76.41
2022-11-29T05:54:07.429Z,74.81
2022-11-29T05:57:31.623Z,72.95
2022-11-29T06:00:52.761Z,74.81
2022-11-29T06:04:13.311Z,77.44
2022-11-29T06:07:38.369Z,78.70
2022-11-29T06:11:00.980Z,77.59
2022-11-29T06:14:22.019Z,79.05
2022-11-29T06:18:00.148Z,80.94
2022-11-29T06:21:26.071Z,78.37
2022-11-29T06:25:04.556Z,77.80
2022-11-29T06:28:43.005Z,74.79
2022-11-29T06:31:59.218Z,72.43
2022-11-29T06:35:22.870Z,71.92
2022-11-29T06:38:33.021Z,73.41
2022-11-29T06:41:42.863Z,82.47
2022-11-29T06:44:50.466Z,96.34
2022-11-29T06:48:06.952Z,93.05
2022-11-29T06:51:29.155Z,94.59
2022-11-29T06:55:03.487Z,87.56
2022-11-29T06:58:40.000Z,87.71
2022-11-29T07:02:00.723Z,87.15
2022-11-29T07:05:24.982Z,79.31
2022-11-29T07:08:32.010Z,72.28
2022-11-29T07:11:40.214Z,68.55
2022-11-29T07:14:50.253Z,71.90
2022-11-29T07:18:18.182Z,73.53
2022-11-29T07:21:49.058Z,77.49
2022-11-29T07:25:14.200Z,78.02
2022-11-29T07:28:44.539Z,81.13
2022-11-29T07:32:12.218Z,84.74
2022-11-29T07:35:30.313Z,84.01
2022-11-29T07:39:03.181Z,84.16
2022-11-29T07:42:24.672Z,86.49
2022-11-29T07:45:36.377Z,85.03
2022-11-29T07:48:45.831Z,82.29
2022-11-29T07:51:52.576Z,79.41
2022-11-29T07:54:59.916Z,76.84
2022-11-29T07:58:06.233Z,78.02
2022-11-29T08:01:13.297Z,80.43
2022-11-29T08:04:23.258Z,82.68
2022-11-29T08:07:29.700Z,80.52
2022-11-29T08:10:37.103Z,80.55
2022-11-29T08:13:43.196Z,83.13
2022-11-29T08:16:50.166Z,91.69
2022-11-29T08:20:02.651Z,79.76
2022-11-29T08:23:15.460Z,75.27
2022-11-29T08:26:29.732Z,72.98
2022-11-29T08:29:38.387Z,75.25
2022-11-29T08:32:48.530Z,75.56
2022-11-29T08:36:09.046Z,76.52
2022-11-29T08:39:15.305Z,79.68
2022-11-29T08:42:22.287Z,78.99
2022-11-29T08:45:28.702Z,79.22
2022-11-29T08:48:37.237Z,81.55
2022-11-29T08:51:46.202Z,89.83
2022-11-29T08:54:50.545Z,92.60
2022-11-29T08:58:03.204Z,86.90
2022-11-29T09:01:18.588Z,85.15
2022-11-29T09:04:25.356Z,83.68
2022-11-29T09:07:35.266Z,81.47
2022-11-29T09:10:42.776Z,86.46
2022-11-29T09:13:53.394Z,84.70
2022-11-29T09:16:59.418Z,82.62
2022-11-29T09:20:08.587Z,78.43
2022-11-29T09:23:17.234Z,79.94
2022-11-29T09:26:24.283Z,80.42
2022-11-29T09:29:30.367Z,79.34
2022-11-29T09:32:38.793Z,77.63
2022-11-29T09:35:45.492Z,73.47
2022-11-29T09:38:55.104Z,76.63
2022-11-29T09:42:30.565Z,91.58
2022-11-29T09:45:48.100Z,85.66
2022-11-29T09:49:26.000Z,78.06
2022-11-29T09:52:52.988Z,66.77
2022-11-29T09:56:26.243Z,74.25
2022-11-29T09:59:43.017Z,80.34
2022-11-29T10:02:57.045Z,78.30
2022-11-29T10:06:14.935Z,81.99
2022-11-29T10:09:34.208Z,79.60
2022-11-29T10:15:59.884Z,70.36
2022-11-29T10:19:22.835Z,69.91
2022-11-29T10:22:43.927Z,74.87
2022-11-29T10:25:54.052Z,78.09
2022-11-29T10:29:01.972Z,77.10
2022-11-29T10:32:19.964Z,73.10
2022-11-29T10:35:27.568Z,87.94
2022-11-29T10:38:34.428Z,90.03
2022-11-29T10:41:40.380Z,82.01
2022-11-29T10:44:47.610Z,83.90
2022-11-29T10:48:00.908Z,80.01
2022-11-29T10:51:20.557Z,76.57
2022-11-29T10:54:43.112Z,74.78
2022-11-29T10:58:13.045Z,73.63
2022-11-29T11:01:20.704Z,71.11
2022-11-29T11:04:46.623Z,68.07
2022-11-29T11:08:01.921Z,65.29
2022-11-29T11:11:11.976Z,61.47
2022-11-29T11:14:25.697Z,60.24
2022-11-29T11:17:37.880Z,59.93
2022-11-29T11:20:56.552Z,59.65
2022-11-29T11:24:06.485Z,60.29
2022-11-29T11:27:12.740Z,64.70
2022-11-29T11:30:27.493Z,65.35
2022-11-29T11:33:37.010Z,66.97
2022-11-29T11:36:46.733Z,68.88
2022-11-29T11:39:56.961Z,68.07
2022-11-29T11:43:06.260Z,63.96
2022-11-29T11:46:17.751Z,64.29
2022-11-29T11:49:33.930Z,63.59
2022-11-29T11:52:50.892Z,60.60
2022-11-29T11:56:05.125Z,58.93
2022-11-29T11:59:24.680Z,60.49
2022-11-29T12:02:42.356Z,58.95
2022-11-29T12:05:52.026Z,60.02
2022-11-29T12:09:14.168Z,59.06
2022-11-29T12:12:28.334Z,60.13
2022-11-29T12:15:45.586Z,56.59
2022-11-29T12:18:59.353Z,56.56
2022-11-29T12:22:21.178Z,54.38
2022-11-29T12:25:43.265Z,55.01
2022-11-29T12:28:51.568Z,53.91
2022-11-29T12:32:25.646Z,52.57
2022-11-29T12:35:55.369Z,53.52
2022-11-29T12:39:28.496Z,52.79
2022-11-29T12:42:58.219Z,51.38
2022-11-29T12:46:17.578Z,49.24
2022-11-29T12:49:43.774Z,47.56
2022-11-29T12:53:09.310Z,47.87
2022-11-29T12:56:25.101Z,45.39
2022-11-29T13:00:01.668Z,44.61
2022-11-29T13:03:30.771Z,44.26
2022-11-29T13:06:52.568Z,45.44
2022-11-29T13:10:31.403Z,47.14
2022-11-29T13:13:45.733Z,49.24
2022-11-29T13:17:03.934Z,51.78
2022-11-29T13:20:31.881Z,54.95
2022-11-29T13:24:11.651Z,56.99
2022-11-29T13:27:26.368Z,58.29
2022-11-29T13:30:34.524Z,59.13
2022-11-29T13:34:01.885Z,60.22
2022-11-29T13:37:26.781Z,61.32
2022-11-29T13:40:48.109Z,62.78
2022-11-29T13:44:11.421Z,63.72
2022-11-29T13:47:21.227Z,63.18
2022-11-29T13:50:46.824Z,63.11
2022-11-29T13:53:54.533Z,64.08
2022-11-29T13:57:09.876Z,64.37
2022-11-29T14:00:32.706Z,63.83
2022-11-29T14:03:43.527Z,62.85
2022-11-29T14:07:05.829Z,63.17
2022-11-29T14:10:29.437Z,63.02
2022-11-29T14:13:52.384Z,63.24
2022-11-29T14:17:04.363Z,64.09
2022-11-29T14:20:57.264Z,67.12
2022-11-29T14:24:43.135Z,66.45
2022-11-29T14:28:07.037Z,72.02
2022-11-29T14:31:14.648Z,78.25
2022-11-29T14:34:48.876Z,76.48
2022-11-29T14:38:15.940Z,65.57
2022-11-29T14:41:41.202Z,67.65
2022-11-29T14:44:54.117Z,74.36
2022-11-29T14:48:02.040Z,76.54
2022-11-29T14:51:17.614Z,75.30
2022-11-29T14:54:23.995Z,73.64
2022-11-29T14:58:15.808Z,67.95
2022-11-29T15:01:27.447Z,62.95
2022-11-29T15:04:38.908Z,59.31
2022-11-29T15:08:00.360Z,56.51
2022-11-29T15:11:20.944Z,59.73
2022-11-29T15:14:50.450Z,63.00
2022-11-29T15:18:22.767Z,64.14
2022-11-29T15:21:43.064Z,65.55
2022-11-29T15:24:57.350Z,59.32
2022-11-29T15:28:06.064Z,55.57
2022-11-29T15:31:21.782Z,57.11
2022-11-29T15:34:36.683Z,56.40
2022-11-29T15:37:48.662Z,58.44
2022-11-29T15:40:58.730Z,58.40
2022-11-29T15:44:08.964Z,57.48
2022-11-29T15:47:24.275Z,59.75
2022-11-29T15:50:38.009Z,60.15
2022-11-29T15:54:00.455Z,62.42
2022-11-29T15:57:29.408Z,60.84
2022-11-29T16:00:36.641Z,56.60
2022-11-29T16:03:49.873Z,55.18
2022-11-29T16:07:00.756Z,51.75
2022-11-29T16:10:21.266Z,51.37
2022-11-29T16:13:38.393Z,51.36
2022-11-29T16:16:52.692Z,53.12
2022-11-29T16:20:31.587Z,53.79
2022-11-29T16:23:43.690Z,55.98
2022-11-29T16:26:53.480Z,57.31
2022-11-29T16:30:01.700Z,63.36
2022-11-29T16:33:14.028Z,59.60
2022-11-29T16:36:31.143Z,63.29
2022-11-29T16:39:42.628Z,59.80
2022-11-29T16:43:24.387Z,52.08
2022-11-29T16:46:42.167Z,52.81
2022-11-29T16:50:09.231Z,53.36
2022-11-29T16:53:37.825Z,55.07
2022-11-29T16:56:50.683Z,55.69
2022-11-29T16:59:57.147Z,60.05
2022-11-29T17:03:04.539Z,58.04
2022-11-29T17:06:15.636Z,54.63
2022-11-29T17:09:30.801Z,50.06
2022-11-29T17:12:43.446Z,48.42
2022-11-29T17:15:54.854Z,50.58
2022-11-29T17:19:01.132Z,54.52
2022-11-29T17:22:09.614Z,50.33
2022-11-29T17:25:16.260Z,51.68
2022-11-29T17:28:26.352Z,49.86
2022-11-29T17:31:33.953Z,52.49
2022-11-29T17:34:43.038Z,52.11
2022-11-29T17:37:50.071Z,53.65
2022-11-29T17:40:57.621Z,54.01
2022-11-29T17:44:07.213Z,54.90
2022-11-29T17:47:14.502Z,56.29
2022-11-29T17:50:21.244Z,55.01
2022-11-29T17:53:28.675Z,54.89
2022-11-29T17:56:35.848Z,55.42
2022-11-29T17:59:45.647Z,57.54
2022-11-29T18:02:51.992Z,58.00
2022-11-29T18:06:02.939Z,56.63
2022-11-29T18:09:13.632Z,55.46
2022-11-29T18:12:20.806Z,50.64
2022-11-29T18:18:41.393Z,52.65
2022-11-29T18:21:49.287Z,53.72
2022-11-29T18:25:15.882Z,55.95
2022-11-29T18:28:22.459Z,62.41
2022-11-29T18:31:35.284Z,62.02
2022-11-29T18:34:45.244Z,58.25
2022-11-29T18:38:14.034Z,60.26
2022-11-29T18:41:22.698Z,58.63
2022-11-29T18:44:30.089Z,63.03
2022-11-29T18:47:36.962Z,59.94
2022-11-29T18:50:46.759Z,64.65
2022-11-29T18:53:53.831Z,60.97
2022-11-29T18:56:59.976Z,58.32
2022-11-29T19:00:09.257Z,67.00
2022-11-29T19:03:15.230Z,71.17
2022-11-29T19:06:28.322Z,70.21
2022-11-29T19:09:34.395Z,65.61
2022-11-29T19:12:41.307Z,65.83
2022-11-29T19:15:54.154Z,65.72
2022-11-29T19:19:03.951Z,66.83
2022-11-29T19:22:13.660Z,69.31
2022-11-29T19:25:20.685Z,75.10
2022-11-29T19:28:27.470Z,71.16
2022-11-29T19:31:35.004Z,61.78
2022-11-29T19:34:41.709Z,61.12
2022-11-29T19:37:51.573Z,61.15
2022-11-29T19:40:57.641Z,60.49
2022-11-29T19:44:08.509Z,59.63
2022-11-29T19:47:15.127Z,58.52
2022-11-29T19:50:22.156Z,59.49
2022-11-29T19:53:31.147Z,62.63
2022-11-29T19:56:39.104Z,64.40
2022-11-29T19:59:45.643Z,64.35
2022-11-29T20:02:52.988Z,65.03
2022-11-29T20:05:59.802Z,64.32
2022-11-29T20:09:10.773Z,62.00
2022-11-29T20:12:16.895Z,62.88
2022-11-29T20:15:23.845Z,62.05
2022-11-29T20:18:34.846Z,66.09
2022-11-29T20:21:48.902Z,61.43
2022-11-29T20:24:58.121Z,59.15
2022-11-29T20:28:08.118Z,60.93
2022-11-29T20:31:21.549Z,59.36
2022-11-29T20:34:29.465Z,63.37
2022-11-29T20:38:07.482Z,66.70
2022-11-29T20:41:30.266Z,75.10
2022-11-29T20:44:42.241Z,74.74
2022-11-29T20:47:59.795Z,76.88
2022-11-29T20:51:07.389Z,72.20
2022-11-29T20:54:15.604Z,83.23
2022-11-29T20:57:25.149Z,69.92
2022-11-29T21:00:32.259Z,63.39
2022-11-29T21:03:38.542Z,69.25
2022-11-29T21:06:45.929Z,72.97
2022-11-29T21:09:55.438Z,83.88
2022-11-29T21:13:08.474Z,77.52
2022-11-29T21:16:17.854Z,62.44
2022-11-29T21:19:29.578Z,59.83
2022-11-29T21:22:54.787Z,60.59
2022-11-29T21:26:16.187Z,56.13
2022-11-29T21:29:27.133Z,61.28
2022-11-29T21:32:35.768Z,62.04
2022-11-29T21:35:43.139Z,57.88
2022-11-29T21:38:54.892Z,57.59
2022-11-29T21:42:01.484Z,54.01
2022-11-29T21:45:15.633Z,53.57
2022-11-29T21:48:34.695Z,57.34
2022-11-29T21:51:41.618Z,59.47
2022-11-29T21:54:48.475Z,56.67
2022-11-29T21:57:56.059Z,57.58
2022-11-29T22:01:14.304Z,55.89
2022-11-29T22:04:21.956Z,57.04
2022-11-29T22:07:28.162Z,53.83
2022-11-29T22:10:35.322Z,62.03
2022-11-29T22:14:03.939Z,73.24
2022-11-29T22:17:13.403Z,69.57
2022-11-29T22:20:19.753Z,66.45
2022-11-29T22:23:26.622Z,64.83
2022-11-29T22:26:32.744Z,60.54
2022-11-29T22:29:39.527Z,54.23
2022-11-29T22:32:48.410Z,53.58
2022-11-29T22:35:55.327Z,50.99
2022-11-29T22:39:01.591Z,51.17
2022-11-29T22:42:08.709Z,50.25
2022-11-29T22:45:15.123Z,51.20
2022-11-29T22:48:24.612Z,50.76
2022-11-29T22:51:34.008Z,50.40
2022-11-29T22:54:40.911Z,48.80
2022-11-29T22:57:47.024Z,47.09
2022-11-29T23:00:53.999Z,44.66
2022-11-29T23:04:06.327Z,44.46
2022-11-29T23:07:13.209Z,45.43
2022-11-29T23:10:19.548Z,45.88
2022-11-29T23:13:28.273Z,45.48
2022-11-29T23:16:36.000Z,45.92
2022-11-29T23:19:46.015Z,44.92
2022-11-29T23:22:52.216Z,44.72
2022-11-29T23:25:59.159Z,43.91
2022-11-29T23:29:06.237Z,43.67
2022-11-29T23:32:13.300Z,44.19
2022-11-29T23:35:24.298Z,43.96
2022-11-29T23:38:31.831Z,44.34
2022-11-29T23:41:39.608Z,44.16
2022-11-29T23:44:46.655Z,46.85
2022-11-29T23:47:53.053Z,45.48
2022-11-29T23:51:02.675Z,45.43
2022-11-29T23:54:09.182Z,45.24
2022-11-29T23:57:16.040Z,46.61
